Time;durP1;ratioP1;P1;durP2;ratioP2;P2;SDS_P1;SDS_P2;PMS_P1;PMS_P2;Temp;Humidity;BMP_temperature;BMP_pressure;BME280_temperature;BME280_humidity;BME280_pressure;Samples;Min_cycle;Max_cycle;Signal;HPM_P1;HPM_P2
2024/01/04 00:01:14;;;;;;;3.07;1.00;;;8.10;99.90;;;;;;5090408;28;20421;-74
2024/01/04 00:03:40;;;;;;;2.60;0.50;;;8.20;99.90;;;;;;5089168;28;20904;-74
2024/01/04 00:06:06;;;;;;;1.63;0.73;;;8.20;99.90;;;;;;5071872;28;20681;-74
2024/01/04 00:08:32;;;;;;;0.83;0.67;;;8.20;99.90;;;;;;5089002;28;20938;-74
2024/01/04 00:10:58;;;;;;;1.60;0.80;;;8.20;99.90;;;;;;5088776;28;20424;-74
2024/01/04 00:13:24;;;;;;;2.50;0.57;;;8.10;99.90;;;;;;5090259;28;20232;-73
2024/01/04 00:15:50;;;;;;;1.20;0.60;;;8.10;99.90;;;;;;5090085;28;20966;-73
2024/01/04 00:18:16;;;;;;;1.00;0.90;;;8.00;99.90;;;;;;5090567;28;20489;-73
2024/01/04 00:20:42;;;;;;;1.10;0.60;;;7.90;99.90;;;;;;5088505;28;20432;-74
2024/01/04 00:23:08;;;;;;;2.30;0.60;;;7.90;99.90;;;;;;5071629;28;20694;-73
2024/01/04 00:25:33;;;;;;;1.47;0.60;;;7.90;99.90;;;;;;5088576;28;20432;-74
2024/01/04 00:28:00;;;;;;;0.97;0.40;;;7.80;99.90;;;;;;5090200;28;20254;-73
2024/01/04 00:30:25;;;;;;;1.53;0.80;;;7.90;99.90;;;;;;5088484;28;20190;-73
2024/01/04 00:32:51;;;;;;;2.30;0.90;;;7.90;99.90;;;;;;5090015;28;20881;-73
2024/01/04 00:35:16;;;;;;;4.23;0.63;;;7.90;99.90;;;;;;5088648;28;20672;-74
2024/01/04 00:37:42;;;;;;;3.37;1.00;;;7.90;99.90;;;;;;5090056;28;20218;-73
2024/01/04 00:40:08;;;;;;;3.17;0.60;;;7.90;99.90;;;;;;5088679;28;20190;-74
2024/01/04 00:42:35;;;;;;;1.00;0.60;;;8.00;99.90;;;;;;5088462;28;20190;-73
2024/01/04 00:45:00;;;;;;;1.53;0.67;;;8.10;99.90;;;;;;5090104;28;20428;-73
2024/01/04 00:47:26;;;;;;;4.30;0.80;;;8.00;99.90;;;;;;5088253;28;20449;-74
2024/01/04 00:49:52;;;;;;;4.80;0.70;;;8.00;99.90;;;;;;5089508;28;20696;-73
2024/01/04 00:52:17;;;;;;;7.87;0.70;;;8.10;99.90;;;;;;5088175;28;20186;-74
2024/01/04 00:54:43;;;;;;;6.83;0.97;;;8.10;99.90;;;;;;5089433;28;20676;-74
2024/01/04 00:57:09;;;;;;;1.03;0.57;;;8.10;99.90;;;;;;5088398;28;20202;-74
2024/01/04 00:59:34;;;;;;;0.87;0.53;;;8.20;99.90;;;;;;5071299;28;20186;-73
2024/01/04 01:02:00;;;;;;;1.07;0.63;;;8.20;99.90;;;;;;5089600;28;20191;-74
2024/01/04 01:04:25;;;;;;;1.87;0.67;;;8.20;99.90;;;;;;5088097;28;20653;-74
2024/01/04 01:06:51;;;;;;;2.03;0.60;;;8.20;99.90;;;;;;5089258;28;20210;-74
2024/01/04 01:09:17;;;;;;;1.80;0.73;;;8.10;99.90;;;;;;5071066;28;20194;-74
2024/01/04 01:11:42;;;;;;;0.90;0.60;;;8.10;99.90;;;;;;5071107;28;20210;-73
2024/01/04 01:14:08;;;;;;;3.80;0.87;;;8.10;99.90;;;;;;5088004;28;20210;-73
2024/01/04 01:16:34;;;;;;;8.10;1.40;;;8.10;99.90;;;;;;5089237;28;20199;-73
2024/01/04 01:18:59;;;;;;;6.53;1.17;;;8.10;99.90;;;;;;5088082;28;21161;-73
2024/01/04 01:21:25;;;;;;;1.87;0.77;;;8.10;99.90;;;;;;5089488;28;20239;-74
2024/01/04 01:23:51;;;;;;;3.33;0.90;;;8.10;99.90;;;;;;5087999;28;20591;-73
2024/01/04 01:26:16;;;;;;;0.90;0.60;;;8.10;99.90;;;;;;5089629;28;20214;-73
2024/01/04 01:28:42;;;;;;;2.63;0.70;;;8.10;99.90;;;;;;5088354;28;20214;-73
2024/01/04 01:31:07;;;;;;;2.60;0.67;;;8.10;99.90;;;;;;5089412;28;20183;-73
2024/01/04 01:33:33;;;;;;;3.20;0.73;;;8.10;99.90;;;;;;5089369;28;20970;-73
2024/01/04 01:36:01;;;;;;;0.80;0.50;;;8.00;99.90;;;;;;5089020;28;20686;-74
2024/01/04 01:38:26;;;;;;;2.57;0.60;;;8.00;99.90;;;;;;5089195;28;20244;-74
2024/01/04 01:40:52;;;;;;;2.80;0.80;;;8.00;99.90;;;;;;5088981;28;20416;-74
2024/01/04 01:43:18;;;;;;;3.07;0.50;;;8.10;99.90;;;;;;5087487;28;20221;-74
2024/01/04 01:45:44;;;;;;;2.53;0.80;;;8.10;99.90;;;;;;5087660;28;20206;-74
2024/01/04 01:48:13;;;;;;;2.93;0.83;;;8.00;99.90;;;;;;5088876;28;20854;-74
2024/01/04 01:50:39;;;;;;;1.50;0.60;;;8.10;99.90;;;;;;5087353;28;20474;-74
2024/01/04 01:53:05;;;;;;;1.00;0.57;;;8.10;99.90;;;;;;5088694;28;20460;-74
2024/01/04 01:55:31;;;;;;;2.40;0.83;;;8.10;99.90;;;;;;5088925;28;20420;-74
2024/01/04 01:57:57;;;;;;;2.50;0.50;;;8.00;99.90;;;;;;5087301;28;20203;-74
2024/01/04 02:00:23;;;;;;;2.40;0.60;;;8.00;99.90;;;;;;5087279;28;20413;-74
2024/01/04 02:02:49;;;;;;;3.33;0.70;;;8.10;99.90;;;;;;5088715;28;20429;-74
2024/01/04 02:05:16;;;;;;;4.07;0.70;;;8.00;99.90;;;;;;5091340;28;20507;-73
2024/01/04 02:07:44;;;;;;;3.80;0.60;;;8.00;99.90;;;;;;5092489;28;20468;-74
2024/01/04 02:10:09;;;;;;;4.33;1.07;;;8.00;99.90;;;;;;5092832;28;21060;-74
2024/01/04 02:12:35;;;;;;;3.10;0.63;;;8.00;99.90;;;;;;5074470;28;20466;-74
2024/01/04 02:15:01;;;;;;;2.30;0.77;;;8.00;99.90;;;;;;5091205;28;20561;-74
2024/01/04 02:17:28;;;;;;;2.60;1.33;;;8.00;99.90;;;;;;5092472;28;20202;-74
2024/01/04 02:19:56;;;;;;;3.77;0.87;;;8.00;99.90;;;;;;5092371;28;20265;-75
2024/01/04 02:22:21;;;;;;;5.97;1.17;;;7.90;99.90;;;;;;5092307;28;20417;-75
2024/01/04 02:24:47;;;;;;;3.03;0.80;;;7.80;99.90;;;;;;5092656;28;20422;-75
2024/01/04 02:27:13;;;;;;;4.80;0.70;;;7.70;99.90;;;;;;5090823;28;20217;-76
2024/01/04 02:29:39;;;;;;;2.77;0.60;;;7.60;99.90;;;;;;5092525;28;20650;-76
2024/01/04 02:32:05;;;;;;;2.10;0.73;;;7.50;99.90;;;;;;5092621;28;20412;-75
2024/01/04 02:34:30;;;;;;;1.20;0.60;;;7.40;99.90;;;;;;5092264;28;20225;-75
2024/01/04 02:36:57;;;;;;;3.03;0.63;;;7.40;99.90;;;;;;5092512;28;20551;-74
2024/01/04 02:39:22;;;;;;;4.03;0.60;;;7.40;99.90;;;;;;5092465;28;20193;-75
2024/01/04 02:41:48;;;;;;;6.00;0.67;;;7.30;99.90;;;;;;5091912;28;20443;-75
2024/01/04 02:44:13;;;;;;;3.60;0.87;;;7.20;99.90;;;;;;5092050;28;20247;-74
2024/01/04 02:46:39;;;;;;;7.93;0.60;;;7.20;99.90;;;;;;5090697;28;20210;-74
2024/01/04 02:49:05;;;;;;;3.90;0.70;;;7.20;99.90;;;;;;5091890;28;20202;-73
2024/01/04 02:51:30;;;;;;;4.73;0.63;;;7.20;99.90;;;;;;5073540;28;20205;-73
2024/01/04 02:53:56;;;;;;;3.73;0.60;;;7.20;99.90;;;;;;5090283;28;20335;-74
2024/01/04 02:56:22;;;;;;;5.70;1.00;;;7.20;99.90;;;;;;5091812;28;20201;-74
2024/01/04 02:58:47;;;;;;;3.13;0.93;;;7.20;99.90;;;;;;5091737;28;20784;-74
2024/01/04 03:01:20;;;;;;;3.80;0.77;;;7.10;99.90;;;;;;5091707;28;20186;-73
2024/01/04 03:03:48;;;;;;;2.30;0.60;;;7.00;99.90;;;;;;5092379;28;20276;-73
2024/01/04 03:06:14;;;;;;;4.43;0.77;;;7.00;99.90;;;;;;5090003;28;20451;-73
2024/01/04 03:08:40;;;;;;;5.53;0.97;;;7.00;99.90;;;;;;5090150;28;20408;-74
2024/01/04 03:11:06;;;;;;;3.80;0.60;;;6.90;99.90;;;;;;5091546;28;20235;-74
2024/01/04 03:13:31;;;;;;;1.67;0.60;;;6.90;99.90;;;;;;5090546;28;20570;-73
2024/01/04 03:15:57;;;;;;;2.23;0.60;;;6.90;99.90;;;;;;5089747;28;20190;-73
2024/01/04 03:18:22;;;;;;;4.83;1.00;;;6.90;99.90;;;;;;5090058;28;20229;-73
2024/01/04 03:20:48;;;;;;;3.23;0.60;;;6.90;99.90;;;;;;5091518;28;20650;-74
2024/01/04 03:23:13;;;;;;;2.67;0.50;;;6.90;99.90;;;;;;5091392;28;20946;-74
2024/01/04 03:25:39;;;;;;;1.90;0.80;;;7.00;99.90;;;;;;5091289;28;20179;-74
2024/01/04 03:28:05;;;;;;;2.40;0.60;;;6.90;99.90;;;;;;5091240;28;20213;-74
2024/01/04 03:30:31;;;;;;;4.07;0.67;;;6.90;99.90;;;;;;5091314;28;20182;-74
2024/01/04 03:32:56;;;;;;;1.73;0.73;;;6.90;99.90;;;;;;5090961;28;20464;-74
2024/01/04 03:35:22;;;;;;;2.70;0.70;;;6.90;99.90;;;;;;5091089;28;20657;-73
2024/01/04 03:37:48;;;;;;;0.80;0.60;;;6.80;99.90;;;;;;5072614;28;20316;-74
2024/01/04 03:40:13;;;;;;;6.60;1.00;;;6.80;99.90;;;;;;5091209;28;20661;-74
2024/01/04 03:42:39;;;;;;;3.20;0.70;;;6.80;99.90;;;;;;5089557;28;20198;-74
2024/01/04 03:45:06;;;;;;;3.50;0.70;;;6.70;99.90;;;;;;5090797;28;20260;-74
2024/01/04 03:47:32;;;;;;;1.47;0.60;;;6.80;99.90;;;;;;5090835;28;20209;-73
2024/01/04 03:49:59;;;;;;;1.30;0.70;;;6.70;99.90;;;;;;5091014;28;20420;-75
2024/01/04 03:52:24;;;;;;;2.60;0.60;;;6.60;99.90;;;;;;5089253;28;20189;-76
2024/01/04 03:54:50;;;;;;;2.70;0.60;;;6.60;99.90;;;;;;5090768;28;20416;-76
2024/01/04 03:57:15;;;;;;;2.70;0.50;;;6.60;99.90;;;;;;5089294;28;20755;-74
2024/01/04 03:59:41;;;;;;;0.80;0.40;;;6.70;99.90;;;;;;5089814;28;20196;-75
2024/01/04 04:02:07;;;;;;;1.27;0.60;;;6.60;99.90;;;;;;5089612;28;20696;-74
2024/01/04 04:04:32;;;;;;;1.43;0.50;;;6.60;99.90;;;;;;5072829;28;20221;-76
2024/01/04 04:06:58;;;;;;;1.47;0.40;;;6.60;99.90;;;;;;5090832;28;20206;-74
2024/01/04 04:09:23;;;;;;;2.60;0.53;;;6.60;99.90;;;;;;5090982;28;20178;-75
2024/01/04 04:11:49;;;;;;;1.73;0.40;;;6.60;99.90;;;;;;5091174;28;20210;-75
2024/01/04 04:14:15;;;;;;;2.60;0.50;;;6.60;99.90;;;;;;5072977;28;20323;-74
2024/01/04 04:16:41;;;;;;;1.57;0.50;;;6.50;99.90;;;;;;5090915;28;20750;-75
2024/01/04 04:19:07;;;;;;;4.10;0.50;;;6.60;99.90;;;;;;5089563;28;20473;-74
2024/01/04 04:21:33;;;;;;;2.80;0.43;;;6.60;99.90;;;;;;5089247;28;21279;-74
2024/01/04 04:23:59;;;;;;;1.57;0.50;;;6.70;99.90;;;;;;5090939;28;20463;-74
2024/01/04 04:26:24;;;;;;;1.83;0.50;;;6.70;99.90;;;;;;5090036;28;20464;-74
2024/01/04 04:28:50;;;;;;;1.93;0.40;;;6.80;99.90;;;;;;5089734;28;20696;-74
2024/01/04 04:31:17;;;;;;;3.63;0.60;;;6.80;99.90;;;;;;5090835;28;20228;-74
2024/01/04 04:33:47;;;;;;;1.37;0.50;;;6.90;99.90;;;;;;5088888;28;20464;-75
2024/01/04 04:36:13;;;;;;;2.20;0.50;;;6.90;99.90;;;;;;5089583;28;20456;-75
2024/01/04 04:38:40;;;;;;;1.27;0.50;;;6.90;99.90;;;;;;5088907;28;20424;-75
2024/01/04 04:41:07;;;;;;;1.63;0.50;;;6.90;99.90;;;;;;5071684;28;20416;-75
2024/01/04 04:43:33;;;;;;;1.67;0.50;;;6.90;99.90;;;;;;5089931;28;20504;-75
2024/01/04 04:46:01;;;;;;;2.50;0.50;;;6.90;99.90;;;;;;5088622;28;20471;-75
2024/01/04 04:48:27;;;;;;;1.40;0.50;;;6.90;99.90;;;;;;5089902;28;20463;-75
2024/01/04 04:50:53;;;;;;;1.53;0.50;;;6.90;99.90;;;;;;5089881;28;21178;-75
2024/01/04 04:53:19;;;;;;;1.20;0.90;;;7.00;99.90;;;;;;5089526;28;20978;-75
2024/01/04 04:55:45;;;;;;;1.73;0.50;;;7.00;99.90;;;;;;5088118;28;20538;-75
2024/01/04 04:58:11;;;;;;;1.77;0.50;;;6.90;99.90;;;;;;5087993;28;20540;-75
2024/01/04 05:00:37;;;;;;;1.67;0.53;;;6.90;99.90;;;;;;5089654;28;20945;-75
2024/01/04 05:03:02;;;;;;;2.83;0.77;;;6.90;99.90;;;;;;5089600;28;20221;-75
2024/01/04 05:05:28;;;;;;;0.97;0.50;;;6.90;99.90;;;;;;5088290;28;20214;-75
2024/01/04 05:07:55;;;;;;;2.67;0.60;;;6.90;99.90;;;;;;5087797;28;20206;-75
2024/01/04 05:10:20;;;;;;;1.83;0.60;;;6.90;99.90;;;;;;5089435;28;20420;-74
2024/01/04 05:12:46;;;;;;;2.40;0.40;;;7.00;99.90;;;;;;5087576;28;20491;-75
2024/01/04 05:15:11;;;;;;;2.40;0.50;;;7.00;99.90;;;;;;5089227;28;20183;-75
2024/01/04 05:17:37;;;;;;;0.90;0.50;;;7.00;99.90;;;;;;5087741;28;20278;-75
2024/01/04 05:20:04;;;;;;;2.93;0.60;;;7.00;99.90;;;;;;5089175;28;20916;-76
2024/01/04 05:22:30;;;;;;;2.90;0.60;;;7.00;99.90;;;;;;5071403;28;20179;-75
2024/01/04 05:24:56;;;;;;;5.43;0.53;;;7.00;99.90;;;;;;5088476;28;20469;-75
2024/01/04 05:27:21;;;;;;;2.33;0.60;;;7.00;99.90;;;;;;5088794;28;20432;-74
2024/01/04 05:29:47;;;;;;;4.23;0.50;;;7.00;99.90;;;;;;5087719;28;20512;-74
2024/01/04 05:32:13;;;;;;;1.83;0.60;;;6.90;99.90;;;;;;5089040;28;20190;-74
2024/01/04 05:34:38;;;;;;;1.67;0.50;;;6.90;99.90;;;;;;5087509;28;20720;-74
2024/01/04 05:37:04;;;;;;;1.07;0.40;;;6.90;99.90;;;;;;5087951;28;20724;-74
2024/01/04 05:39:29;;;;;;;2.83;0.73;;;6.90;99.90;;;;;;5087773;28;20189;-76
2024/01/04 05:41:55;;;;;;;0.90;0.43;;;7.00;99.90;;;;;;5087244;28;20553;-75
2024/01/04 05:44:21;;;;;;;5.00;0.57;;;6.90;99.90;;;;;;5087386;28;20197;-75
2024/01/04 05:46:46;;;;;;;4.50;0.60;;;6.90;99.90;;;;;;5087253;28;20212;-74
2024/01/04 05:49:12;;;;;;;1.90;0.57;;;6.90;99.90;;;;;;5087248;28;20189;-74
2024/01/04 05:51:37;;;;;;;4.00;0.60;;;6.90;99.90;;;;;;5088663;28;20247;-76
2024/01/04 05:54:03;;;;;;;2.90;0.60;;;6.80;99.90;;;;;;5087265;28;20624;-75
2024/01/04 05:56:29;;;;;;;1.80;0.60;;;6.90;99.90;;;;;;5087093;28;20194;-75
2024/01/04 05:58:55;;;;;;;2.37;0.80;;;7.00;99.90;;;;;;5087206;28;20446;-76
2024/01/04 06:01:21;;;;;;;1.07;0.60;;;6.80;99.90;;;;;;5088600;28;20423;-75
2024/01/04 06:03:47;;;;;;;2.87;0.80;;;6.80;99.90;;;;;;5086970;28;20428;-74
2024/01/04 06:06:15;;;;;;;0.87;0.50;;;6.80;99.90;;;;;;5088194;28;20202;-76
2024/01/04 06:08:41;;;;;;;1.83;0.60;;;6.80;99.90;;;;;;5088517;28;20424;-76
2024/01/04 06:11:08;;;;;;;2.43;1.00;;;6.80;99.90;;;;;;5088421;28;20778;-74
2024/01/04 06:13:34;;;;;;;4.03;0.90;;;6.80;99.90;;;;;;5088254;28;20963;-74
2024/01/04 06:16:07;;;;;;;1.73;0.70;;;6.80;99.90;;;;;;5088219;28;20474;-74
2024/01/04 06:25:23;;;;;;;6.70;0.80;;;6.90;99.90;;;;;;5122066;28;20395;-75
2024/01/04 06:27:50;;;;;;;2.90;0.70;;;6.90;99.90;;;;;;5129056;28;20457;-74
2024/01/04 06:30:15;;;;;;;1.90;0.70;;;6.90;99.90;;;;;;5128875;28;20415;-76
2024/01/04 06:32:41;;;;;;;4.43;0.83;;;6.90;99.90;;;;;;5129029;28;20837;-75
2024/01/04 06:35:07;;;;;;;2.70;0.80;;;7.00;99.90;;;;;;5094065;28;20231;-75
2024/01/04 06:37:32;;;;;;;5.70;0.90;;;7.00;99.90;;;;;;5129083;28;20976;-76
2024/01/04 06:39:58;;;;;;;4.60;0.90;;;7.00;99.90;;;;;;5111013;28;20415;-75
2024/01/04 06:42:24;;;;;;;3.67;1.20;;;7.00;99.90;;;;;;5129030;28;20735;-75
2024/01/04 06:44:49;;;;;;;4.93;0.80;;;7.00;99.90;;;;;;5128826;28;20230;-75
2024/01/04 06:47:15;;;;;;;2.30;0.70;;;7.00;99.90;;;;;;5128538;28;20204;-74
2024/01/04 06:49:41;;;;;;;1.80;0.90;;;7.00;99.90;;;;;;5131642;27;20212;-75
2024/01/04 06:52:07;;;;;;;4.43;1.00;;;7.10;99.90;;;;;;5114229;27;20227;-74
2024/01/04 06:54:32;;;;;;;3.53;1.00;;;7.00;99.90;;;;;;5114353;27;20462;-74
2024/01/04 06:56:58;;;;;;;2.40;1.33;;;7.00;99.90;;;;;;5132441;27;20232;-74
2024/01/04 06:59:24;;;;;;;2.40;0.60;;;7.00;99.90;;;;;;5097216;27;20178;-74
2024/01/04 07:01:49;;;;;;;5.20;1.00;;;7.00;99.90;;;;;;5132670;27;20181;-75
2024/01/04 07:04:15;;;;;;;2.50;0.80;;;7.00;99.90;;;;;;5132456;27;20437;-74
2024/01/04 07:06:40;;;;;;;2.17;0.60;;;7.00;99.90;;;;;;5132430;27;20211;-73
2024/01/04 07:09:06;;;;;;;1.87;0.80;;;7.00;99.90;;;;;;5132511;27;20213;-74
2024/01/04 07:11:32;;;;;;;3.13;0.70;;;7.00;99.90;;;;;;5132354;27;20226;-74
2024/01/04 07:13:57;;;;;;;5.90;0.90;;;7.00;99.90;;;;;;5079679;27;20212;-74
2024/01/04 07:16:23;;;;;;;4.47;0.97;;;7.00;99.90;;;;;;5096572;27;20611;-75
2024/01/04 07:18:48;;;;;;;2.17;0.60;;;7.00;99.90;;;;;;5113770;27;20726;-74
2024/01/04 07:21:14;;;;;;;5.40;0.70;;;7.00;99.90;;;;;;5096688;27;20177;-75
2024/01/04 07:23:40;;;;;;;8.20;2.87;;;7.00;99.90;;;;;;5096877;27;20231;-75
2024/01/04 07:26:06;;;;;;;3.03;0.67;;;7.00;99.90;;;;;;5132108;27;20197;-75
2024/01/04 07:28:32;;;;;;;1.40;0.70;;;7.00;99.90;;;;;;5113940;27;20857;-75
2024/01/04 07:30:58;;;;;;;3.83;0.60;;;7.10;99.90;;;;;;5096742;27;20188;-75
2024/01/04 07:33:26;;;;;;;6.90;1.03;;;7.10;99.90;;;;;;5096444;27;20217;-75
2024/01/04 07:35:51;;;;;;;1.83;0.60;;;7.10;99.90;;;;;;5096712;27;20185;-75
2024/01/04 07:38:17;;;;;;;1.23;0.60;;;7.10;99.90;;;;;;5131957;27;20415;-74
2024/01/04 07:40:43;;;;;;;2.70;0.63;;;7.10;99.90;;;;;;5131921;27;20227;-75
2024/01/04 07:43:08;;;;;;;3.80;0.83;;;7.10;99.90;;;;;;5096920;27;20188;-75
2024/01/04 07:45:36;;;;;;;2.93;0.47;;;7.10;99.90;;;;;;5113395;27;20187;-75
2024/01/04 07:48:01;;;;;;;1.50;0.53;;;7.10;99.90;;;;;;5131733;27;20220;-74
2024/01/04 07:50:27;;;;;;;5.90;0.70;;;7.10;99.90;;;;;;5113434;27;20425;-75
2024/01/04 07:52:52;;;;;;;3.03;0.70;;;7.10;99.90;;;;;;5096161;27;20213;-76
2024/01/04 07:55:20;;;;;;;2.40;0.60;;;7.10;99.90;;;;;;5113322;27;20208;-75
2024/01/04 07:57:45;;;;;;;4.60;0.63;;;7.10;99.90;;;;;;5131624;27;20210;-75
2024/01/04 08:00:12;;;;;;;3.87;0.80;;;7.10;99.90;;;;;;5130719;27;20411;-75
2024/01/04 08:02:39;;;;;;;1.03;0.50;;;7.10;99.90;;;;;;5131533;27;20181;-74
2024/01/04 08:05:05;;;;;;;4.33;0.73;;;7.10;99.90;;;;;;5112808;27;20429;-75
2024/01/04 08:07:30;;;;;;;6.10;0.97;;;7.10;99.90;;;;;;5113220;27;20431;-75
2024/01/04 08:09:56;;;;;;;5.80;0.67;;;7.10;99.90;;;;;;5096044;27;20192;-74
2024/01/04 08:12:21;;;;;;;2.40;0.70;;;7.10;99.90;;;;;;5131392;27;20181;-75
2024/01/04 08:14:48;;;;;;;3.53;1.10;;;7.10;99.90;;;;;;5095710;27;20216;-75
2024/01/04 08:17:14;;;;;;;3.50;1.00;;;7.10;99.90;;;;;;5112919;27;20209;-74
2024/01/04 08:19:39;;;;;;;2.20;0.50;;;7.10;99.90;;;;;;5096298;27;20436;-75
2024/01/04 08:22:05;;;;;;;4.53;0.77;;;7.10;99.90;;;;;;5132101;27;20212;-75
2024/01/04 08:24:30;;;;;;;3.13;0.70;;;7.10;99.90;;;;;;5131130;27;20209;-74
2024/01/04 08:26:58;;;;;;;16.57;1.27;;;7.10;99.90;;;;;;5095371;27;20688;-75
2024/01/04 08:29:23;;;;;;;2.23;0.77;;;7.10;99.90;;;;;;5130843;27;20744;-75
2024/01/04 08:31:50;;;;;;;2.60;0.77;;;7.20;99.90;;;;;;5112563;27;20454;-75
2024/01/04 08:34:15;;;;;;;5.13;0.70;;;7.10;99.90;;;;;;5112340;27;20210;-75
2024/01/04 08:36:41;;;;;;;8.00;0.90;;;7.20;99.90;;;;;;5112038;27;20526;-75
2024/01/04 08:39:07;;;;;;;4.00;0.97;;;7.10;99.90;;;;;;5130835;27;20188;-75
2024/01/04 08:41:32;;;;;;;4.63;0.87;;;7.20;99.90;;;;;;5130786;27;20170;-75
2024/01/04 08:43:58;;;;;;;1.47;0.77;;;7.20;99.90;;;;;;5112277;27;20180;-75
2024/01/04 08:46:24;;;;;;;7.50;0.70;;;7.40;99.90;;;;;;5130403;27;20296;-75
2024/01/04 08:48:49;;;;;;;6.90;0.90;;;7.50;99.90;;;;;;5094879;27;20197;-76
2024/01/04 08:51:15;;;;;;;0.90;0.60;;;7.70;99.90;;;;;;5095190;27;20189;-75
2024/01/04 08:53:41;;;;;;;2.17;0.70;;;8.00;99.90;;;;;;5112002;27;20676;-75
2024/01/04 08:56:08;;;;;;;6.37;1.20;;;8.40;99.90;;;;;;5111908;27;20284;-75
2024/01/04 08:58:35;;;;;;;2.77;0.87;;;9.10;99.90;;;;;;5130206;27;20181;-75
2024/01/04 09:01:00;;;;;;;2.10;0.70;;;10.10;99.90;;;;;;5130408;27;20419;-74
2024/01/04 09:03:26;;;;;;;7.93;0.87;;;9.90;99.90;;;;;;5130545;27;20415;-74
2024/01/04 09:05:51;;;;;;;3.07;0.90;;;10.00;99.90;;;;;;5130361;27;20267;-74
2024/01/04 09:08:17;;;;;;;4.93;1.20;;;10.20;99.90;;;;;;5112238;27;20181;-74
2024/01/04 09:10:42;;;;;;;6.20;1.60;;;10.10;99.90;;;;;;5112027;27;20173;-75
2024/01/04 09:13:08;;;;;;;4.00;1.00;;;10.00;99.90;;;;;;5111109;27;20205;-75
2024/01/04 09:15:34;;;;;;;3.13;0.97;;;9.90;99.90;;;;;;5093077;27;21032;-74
2024/01/04 09:18:00;;;;;;;3.10;1.07;;;9.90;99.90;;;;;;5109822;27;20201;-75
2024/01/04 09:20:26;;;;;;;1.77;0.70;;;9.70;99.90;;;;;;5110407;27;20415;-75
2024/01/04 09:22:52;;;;;;;2.97;0.80;;;9.80;99.90;;;;;;5128456;27;20241;-75
2024/01/04 09:25:18;;;;;;;2.20;0.87;;;9.80;99.90;;;;;;5128524;27;20420;-75
2024/01/04 09:27:44;;;;;;;3.23;0.80;;;9.60;99.90;;;;;;5093060;27;20519;-75
2024/01/04 09:30:10;;;;;;;1.63;0.80;;;9.60;99.90;;;;;;5128332;27;20181;-75
2024/01/04 09:32:36;;;;;;;2.27;0.70;;;9.30;99.90;;;;;;5128328;27;20506;-75
2024/01/04 09:35:02;;;;;;;3.23;0.90;;;9.10;99.90;;;;;;5109584;27;20472;-74
2024/01/04 09:37:28;;;;;;;3.43;0.70;;;9.10;99.90;;;;;;5128164;27;20872;-74
2024/01/04 09:39:53;;;;;;;5.13;1.07;;;9.40;99.90;;;;;;5109754;27;20204;-75
2024/01/04 09:42:22;;;;;;;5.43;0.90;;;9.70;99.90;;;;;;5109597;27;20183;-76
2024/01/04 09:44:50;;;;;;;2.50;0.57;;;9.70;99.90;;;;;;5128472;27;20666;-74
2024/01/04 09:47:19;;;;;;;8.73;1.40;;;9.50;99.90;;;;;;5109603;27;20438;-75
2024/01/04 09:49:46;;;;;;;2.80;0.90;;;9.40;99.90;;;;;;5092818;28;20430;-74
2024/01/04 09:52:12;;;;;;;6.07;1.20;;;9.80;99.90;;;;;;5128632;27;20403;-74
2024/01/04 09:54:39;;;;;;;5.37;0.83;;;10.80;99.90;;;;;;5109725;28;20487;-75
2024/01/04 09:57:08;;;;;;;4.77;1.23;;;11.60;99.90;;;;;;5109947;28;20980;-74
2024/01/04 09:59:34;;;;;;;5.53;1.00;;;12.10;99.90;;;;;;5128483;28;20404;-74
2024/01/04 10:02:03;;;;;;;5.50;1.00;;;11.70;99.90;;;;;;5129589;28;20411;-73
2024/01/04 10:04:31;;;;;;;1.90;1.07;;;11.30;99.90;;;;;;5130234;28;20185;-75
2024/01/04 10:06:59;;;;;;;2.20;0.70;;;10.80;99.90;;;;;;5109934;28;20455;-74
2024/01/04 10:09:28;;;;;;;2.60;0.70;;;10.30;99.90;;;;;;5093177;28;20435;-74
2024/01/04 10:11:57;;;;;;;3.77;1.10;;;9.80;99.90;;;;;;5110768;28;20427;-75
2024/01/04 10:14:24;;;;;;;3.30;0.90;;;11.00;99.90;;;;;;5129237;28;20923;-74
2024/01/04 10:16:50;;;;;;;2.23;0.87;;;11.20;99.90;;;;;;5093357;28;20443;-73
2024/01/04 10:19:16;;;;;;;1.30;0.70;;;11.40;99.90;;;;;;5128425;28;20420;-74
2024/01/04 10:21:42;;;;;;;6.63;1.00;;;11.70;99.90;;;;;;5128144;28;20934;-74
2024/01/04 10:24:10;;;;;;;2.07;0.90;;;12.30;99.90;;;;;;5111852;27;20609;-74
2024/01/04 10:26:35;;;;;;;3.60;1.00;;;12.80;99.90;;;;;;5113701;27;20226;-74
2024/01/04 10:29:01;;;;;;;5.40;1.20;;;13.00;99.90;;;;;;5114065;27;20943;-73
2024/01/04 10:31:27;;;;;;;4.03;0.93;;;13.10;99.90;;;;;;5096675;27;20328;-74
2024/01/04 10:33:57;;;;;;;2.03;0.80;;;12.40;99.90;;;;;;5131827;27;20339;-73
2024/01/04 10:36:23;;;;;;;3.83;1.00;;;11.70;99.90;;;;;;5131965;27;20449;-74
2024/01/04 10:38:49;;;;;;;3.03;1.00;;;11.30;99.90;;;;;;5131796;27;20412;-73
2024/01/04 10:41:17;;;;;;;4.40;1.00;;;10.90;99.90;;;;;;5131710;27;20462;-74
2024/01/04 10:43:43;;;;;;;5.97;1.50;;;10.80;99.90;;;;;;5096137;27;20186;-74
2024/01/04 10:46:10;;;;;;;4.73;1.13;;;10.60;99.90;;;;;;5131576;27;21040;-73
2024/01/04 10:48:37;;;;;;;1.87;0.90;;;10.10;99.90;;;;;;5131910;27;21055;-74
2024/01/04 10:51:04;;;;;;;3.10;1.10;;;10.40;99.90;;;;;;5131654;27;20551;-74
2024/01/04 10:53:38;;;;;;;4.10;1.23;;;12.40;99.90;;;;;;5131413;27;20539;-74
2024/01/04 10:56:04;;;;;;;1.90;0.70;;;13.80;99.90;;;;;;5131383;27;20916;-73
2024/01/04 10:58:33;;;;;;;4.77;1.10;;;14.80;99.90;;;;;;5131746;27;20411;-74
2024/01/04 11:01:00;;;;;;;7.50;1.23;;;15.00;99.90;;;;;;5096331;27;20423;-74
2024/01/04 11:03:29;;;;;;;4.30;1.30;;;15.70;99.90;;;;;;5113459;27;20418;-73
2024/01/04 11:05:56;;;;;;;5.67;1.20;;;16.00;99.90;;;;;;5131748;27;20467;-74
2024/01/04 11:08:23;;;;;;;8.47;0.90;;;16.70;99.90;;;;;;5131687;27;20430;-74
2024/01/04 11:10:50;;;;;;;3.30;1.10;;;18.10;96.40;;;;;;5112883;27;20505;-74
2024/01/04 11:13:16;;;;;;;1.87;1.00;;;16.40;94.50;;;;;;5095367;27;20462;-74
2024/01/04 11:15:43;;;;;;;4.57;1.37;;;18.10;95.70;;;;;;5112634;27;20419;-72
2024/01/04 11:18:39;;;;;;;3.03;1.00;;;19.60;92.20;;;;;;5113031;27;20201;-74
2024/01/04 11:21:38;;;;;;;2.90;0.90;;;20.60;88.10;;;;;;5131523;27;20410;-74
2024/01/04 11:24:06;;;;;;;2.60;1.33;;;18.70;80.80;;;;;;5112542;27;20555;-73
2024/01/04 11:26:53;;;;;;;4.73;1.37;;;18.10;87.00;;;;;;5095444;27;20437;-72
2024/01/04 11:29:19;;;;;;;1.47;0.90;;;17.60;88.00;;;;;;5095066;27;20426;-72
2024/01/04 11:31:45;;;;;;;2.70;1.03;;;17.00;90.00;;;;;;5130958;27;21054;-73
2024/01/04 11:34:13;;;;;;;5.50;1.10;;;17.20;92.70;;;;;;5130892;27;20494;-73
2024/01/04 11:36:41;;;;;;;1.83;0.80;;;16.00;93.40;;;;;;5130010;27;20615;-72
2024/01/04 11:39:07;;;;;;;2.60;1.13;;;16.20;94.80;;;;;;5112511;27;20480;-72
2024/01/04 11:41:34;;;;;;;2.93;1.07;;;16.80;93.90;;;;;;5112533;27;20414;-73
2024/01/04 11:44:01;;;;;;;3.00;1.23;;;17.00;92.20;;;;;;5112239;27;20681;-73
2024/01/04 11:46:26;;;;;;;5.33;1.30;;;17.30;91.90;;;;;;5131054;27;20978;-71
2024/01/04 11:48:53;;;;;;;1.47;0.70;;;17.10;91.20;;;;;;5130631;27;20412;-73
2024/01/04 11:51:40;;;;;;;4.57;1.20;;;15.80;91.40;;;;;;5103885;27;20420;-72
2024/01/04 11:54:08;;;;;;;3.50;0.90;;;15.70;94.20;;;;;;5130618;27;20458;-72
2024/01/04 11:56:34;;;;;;;3.33;0.80;;;14.90;94.30;;;;;;5111931;27;20986;-72
2024/01/04 11:59:29;;;;;;;3.73;0.93;;;14.10;96.50;;;;;;5130969;27;20415;-72
2024/01/04 12:01:55;;;;;;;6.50;1.70;;;13.60;99.90;;;;;;5109818;27;20925;-72
2024/01/04 12:04:21;;;;;;;3.00;0.90;;;13.00;99.90;;;;;;5130626;27;20493;-72
2024/01/04 12:06:49;;;;;;;4.07;1.10;;;12.20;99.90;;;;;;5111761;27;20600;-73
2024/01/04 12:09:15;;;;;;;5.17;1.30;;;11.90;99.90;;;;;;5130652;27;20173;-73
2024/01/04 12:11:43;;;;;;;2.00;0.97;;;12.20;99.90;;;;;;5130236;27;20434;-73
2024/01/04 12:14:09;;;;;;;3.80;0.73;;;12.20;99.90;;;;;;5130221;27;20469;-72
2024/01/04 12:16:37;;;;;;;2.40;0.80;;;12.20;99.90;;;;;;5129977;27;20486;-73
2024/01/04 12:19:03;;;;;;;2.27;1.13;;;11.70;99.90;;;;;;5130235;27;20848;-73
2024/01/04 12:21:29;;;;;;;4.60;1.00;;;11.50;99.90;;;;;;5130204;27;20425;-72
2024/01/04 12:23:55;;;;;;;2.80;0.87;;;11.30;99.90;;;;;;5130911;27;20287;-73
2024/01/04 12:26:23;;;;;;;2.80;0.70;;;11.10;99.90;;;;;;5130148;27;20995;-72
2024/01/04 12:28:52;;;;;;;1.97;0.70;;;11.20;99.90;;;;;;5130032;27;20409;-72
2024/01/04 12:31:24;;;;;;;2.10;0.73;;;10.70;99.90;;;;;;5129973;27;20424;-73
2024/01/04 12:33:53;;;;;;;3.53;1.03;;;10.70;99.90;;;;;;5111013;27;20471;-73
2024/01/04 12:36:21;;;;;;;6.07;1.17;;;10.60;99.90;;;;;;5078038;27;20993;-72
2024/01/04 12:38:52;;;;;;;3.77;0.80;;;10.60;99.90;;;;;;5130130;27;20412;-72
2024/01/04 12:41:29;;;;;;;3.40;0.70;;;10.60;99.90;;;;;;5129971;27;20440;-73
2024/01/04 12:43:56;;;;;;;2.70;0.80;;;10.60;99.90;;;;;;5111901;27;20900;-73
2024/01/04 12:46:22;;;;;;;3.43;0.80;;;10.30;99.90;;;;;;5111371;27;20806;-73
2024/01/04 12:48:49;;;;;;;1.63;0.70;;;10.30;99.90;;;;;;5094223;27;20849;-72
2024/01/04 12:51:14;;;;;;;3.23;0.97;;;10.00;99.90;;;;;;5129885;27;20510;-73
2024/01/04 12:53:45;;;;;;;4.67;0.90;;;10.00;99.90;;;;;;5129843;27;20546;-73
2024/01/04 12:56:15;;;;;;;4.20;0.90;;;9.90;99.90;;;;;;5111170;27;20449;-72
2024/01/04 12:58:41;;;;;;;4.20;1.17;;;9.80;99.90;;;;;;5111519;27;20503;-72